Time;durP1;ratioP1;P1;durP2;ratioP2;P2;SDS_P1;SDS_P2;PMS_P1;PMS_P2;Temp;Humidity;BMP_temperature;BMP_pressure;BME280_temperature;BME280_humidity;BME280_pressure;Samples;Min_cycle;Max_cycle;Signal;HPM_P1;HPM_P2
2023/11/15 00:00:48;;;;;;;33.67;13.52;;;12.40;99.90;;;;;;5025102;27;20037;-70
2023/11/15 00:03:16;;;;;;;43.00;13.50;;;12.40;99.90;;;;;;5024352;28;20033;-69
2023/11/15 00:05:42;;;;;;;38.05;14.55;;;12.40;99.90;;;;;;5028850;27;20035;-72
2023/11/15 00:08:08;;;;;;;38.67;15.48;;;12.40;99.90;;;;;;5028831;27;20466;-71
2023/11/15 00:10:34;;;;;;;39.10;15.45;;;12.40;99.90;;;;;;5023750;28;20040;-69
2023/11/15 00:13:00;;;;;;;39.38;14.80;;;12.40;99.90;;;;;;5034778;27;20021;-70
2023/11/15 00:15:26;;;;;;;27.50;12.95;;;12.40;99.90;;;;;;5015508;27;20036;-71
2023/11/15 00:17:52;;;;;;;35.85;13.38;;;12.40;99.90;;;;;;5034713;27;20029;-70
2023/11/15 00:20:18;;;;;;;39.30;14.00;;;12.30;99.90;;;;;;5018174;27;20057;-70
2023/11/15 00:22:43;;;;;;;32.22;14.00;;;12.30;99.90;;;;;;5034831;27;20078;-70
2023/11/15 00:25:09;;;;;;;32.58;14.25;;;12.40;99.90;;;;;;5025717;27;20886;-70
2023/11/15 00:27:35;;;;;;;41.50;12.68;;;12.40;99.90;;;;;;5025349;27;20099;-70
2023/11/15 00:30:02;;;;;;;35.15;13.02;;;12.40;99.90;;;;;;5029962;27;20036;-71
2023/11/15 00:32:28;;;;;;;35.63;12.52;;;12.40;99.90;;;;;;5022332;27;20060;-71
2023/11/15 00:34:54;;;;;;;37.60;12.82;;;12.40;99.90;;;;;;5025659;28;20451;-70
2023/11/15 00:37:19;;;;;;;33.85;12.13;;;12.40;99.90;;;;;;5027214;27;20021;-70
2023/11/15 00:39:45;;;;;;;26.13;11.85;;;12.40;99.90;;;;;;5028548;28;20043;-69
2023/11/15 00:42:11;;;;;;;28.65;11.23;;;12.40;99.90;;;;;;5018339;28;20469;-72
2023/11/15 00:44:38;;;;;;;29.83;11.38;;;12.40;99.90;;;;;;5029995;27;20034;-68
2023/11/15 00:47:05;;;;;;;27.20;12.32;;;12.40;99.90;;;;;;5030895;27;20021;-69
2023/11/15 00:49:32;;;;;;;28.25;11.43;;;12.40;99.90;;;;;;5024742;28;20424;-69
2023/11/15 00:51:57;;;;;;;26.85;11.65;;;12.40;99.90;;;;;;5025190;28;20041;-69
2023/11/15 00:54:24;;;;;;;28.45;12.63;;;12.40;99.90;;;;;;5022756;28;20104;-70
2023/11/15 00:56:50;;;;;;;25.85;11.73;;;12.40;99.90;;;;;;5024103;27;20499;-69
2023/11/15 00:59:19;;;;;;;38.80;13.85;;;12.40;99.90;;;;;;5031225;28;20026;-71
2023/11/15 01:01:44;;;;;;;43.38;14.18;;;12.30;99.90;;;;;;5021985;27;20026;-73
2023/11/15 01:04:11;;;;;;;31.65;14.57;;;12.40;99.90;;;;;;5030323;28;20036;-71
2023/11/15 01:06:37;;;;;;;34.85;14.10;;;12.40;99.90;;;;;;5028919;27;20022;-71
2023/11/15 01:09:07;;;;;;;32.88;12.73;;;12.40;99.90;;;;;;5029017;28;20030;-72
2023/11/15 01:11:33;;;;;;;43.05;13.77;;;12.40;99.90;;;;;;5027335;28;20033;-70
2023/11/15 01:13:59;;;;;;;38.15;13.48;;;12.40;99.90;;;;;;5036336;27;20025;-69
2023/11/15 01:16:24;;;;;;;37.00;13.50;;;12.40;99.90;;;;;;5026021;27;20025;-69
2023/11/15 01:18:53;;;;;;;36.78;14.35;;;12.30;99.90;;;;;;5038726;27;20029;-69
2023/11/15 01:21:19;;;;;;;29.70;13.68;;;12.30;99.90;;;;;;5024022;27;20172;-70
2023/11/15 01:23:45;;;;;;;34.70;12.57;;;12.30;99.90;;;;;;5031311;27;20026;-70
2023/11/15 01:26:11;;;;;;;31.48;12.07;;;12.40;99.90;;;;;;5021593;27;20025;-69
2023/11/15 01:28:37;;;;;;;31.35;11.63;;;12.30;99.90;;;;;;5026564;27;20470;-70
2023/11/15 01:31:03;;;;;;;35.65;12.10;;;12.30;99.90;;;;;;5028360;27;20028;-69
2023/11/15 01:33:29;;;;;;;25.13;10.45;;;12.30;99.90;;;;;;5028489;27;20479;-70
2023/11/15 01:35:54;;;;;;;30.83;10.25;;;12.40;99.90;;;;;;5030672;27;20074;-74
2023/11/15 01:38:20;;;;;;;27.02;10.10;;;12.40;99.90;;;;;;5034153;27;20020;-70
2023/11/15 01:40:48;;;;;;;34.38;9.68;;;12.40;99.90;;;;;;5024269;27;20397;-74
2023/11/15 01:43:16;;;;;;;34.17;10.32;;;12.30;99.90;;;;;;5040352;27;20053;-69
2023/11/15 01:45:43;;;;;;;27.17;9.13;;;12.40;99.90;;;;;;5023132;27;20056;-70
2023/11/15 01:48:09;;;;;;;32.00;10.00;;;12.30;99.90;;;;;;5041033;27;20057;-70
2023/11/15 01:50:35;;;;;;;31.52;10.05;;;12.30;99.90;;;;;;5032931;27;20082;-70
2023/11/15 01:53:02;;;;;;;29.77;9.65;;;12.30;99.90;;;;;;5032087;27;20423;-70
2023/11/15 01:55:29;;;;;;;29.52;10.70;;;12.30;99.90;;;;;;5037001;27;20079;-69
2023/11/15 01:57:55;;;;;;;26.63;8.93;;;12.20;99.90;;;;;;5025391;27;20475;-70
2023/11/15 02:00:22;;;;;;;31.98;9.70;;;12.20;99.90;;;;;;5025461;27;20120;-69
2023/11/15 02:02:48;;;;;;;29.30;9.65;;;12.20;99.90;;;;;;5025378;28;20501;-69
2023/11/15 02:05:14;;;;;;;32.22;9.23;;;12.20;99.90;;;;;;5030856;27;20033;-69
2023/11/15 02:07:41;;;;;;;32.25;9.95;;;12.20;99.90;;;;;;5025652;27;20056;-69
2023/11/15 02:10:09;;;;;;;35.65;10.30;;;12.10;99.90;;;;;;5026160;27;20113;-70
2023/11/15 02:12:35;;;;;;;34.80;10.52;;;12.10;99.90;;;;;;5028014;27;20026;-70
2023/11/15 02:15:00;;;;;;;34.72;10.43;;;12.10;99.90;;;;;;5027901;27;20039;-69
2023/11/15 02:17:26;;;;;;;38.40;10.50;;;12.10;99.90;;;;;;5031290;27;20144;-70
2023/11/15 02:19:52;;;;;;;34.00;10.63;;;12.20;99.90;;;;;;5023794;27;20046;-70
2023/11/15 02:22:18;;;;;;;44.28;10.27;;;12.20;99.90;;;;;;5030718;27;20025;-72
2023/11/15 02:24:47;;;;;;;42.17;11.13;;;12.20;99.90;;;;;;5039886;27;20488;-70
2023/11/15 02:27:12;;;;;;;37.20;9.85;;;12.10;99.90;;;;;;5030546;27;20078;-71
2023/11/15 02:29:39;;;;;;;37.42;11.20;;;12.10;99.90;;;;;;5041082;27;20023;-71
2023/11/15 02:32:05;;;;;;;30.42;8.15;;;12.10;99.90;;;;;;5027071;27;20470;-69
2023/11/15 02:34:32;;;;;;;29.70;8.02;;;12.10;99.90;;;;;;5027195;27;20014;-70
2023/11/15 02:36:57;;;;;;;23.67;8.00;;;12.10;99.90;;;;;;5027979;27;20029;-70
2023/11/15 02:39:23;;;;;;;25.83;8.18;;;12.10;99.90;;;;;;5020578;27;20041;-69
2023/11/15 02:41:50;;;;;;;36.53;7.15;;;12.10;99.90;;;;;;5024611;27;20036;-70
2023/11/15 02:44:16;;;;;;;32.70;8.00;;;12.10;99.90;;;;;;5031764;27;20017;-69
2023/11/15 02:46:41;;;;;;;35.33;8.02;;;12.10;99.90;;;;;;5027234;27;20030;-69
2023/11/15 02:49:07;;;;;;;22.73;7.47;;;12.10;99.90;;;;;;5029852;27;20615;-69
2023/11/15 02:51:33;;;;;;;24.95;7.68;;;12.10;99.90;;;;;;5028720;27;20026;-70
2023/11/15 02:53:59;;;;;;;35.88;7.47;;;12.10;99.90;;;;;;5029873;27;20047;-69
2023/11/15 02:56:24;;;;;;;32.08;7.47;;;12.10;99.90;;;;;;5030014;27;20532;-69
2023/11/15 02:58:51;;;;;;;24.70;6.82;;;12.10;99.90;;;;;;5040158;27;20073;-69
2023/11/15 03:01:17;;;;;;;26.92;6.47;;;12.10;99.90;;;;;;5021253;27;20049;-69
2023/11/15 03:03:43;;;;;;;22.65;6.30;;;12.20;99.90;;;;;;5029715;27;20025;-69
2023/11/15 03:06:09;;;;;;;30.10;6.05;;;12.10;99.90;;;;;;5029145;27;20022;-69
2023/11/15 03:08:36;;;;;;;26.63;6.25;;;12.10;99.90;;;;;;5024261;27;20661;-69
2023/11/15 03:11:02;;;;;;;24.48;6.65;;;12.10;99.90;;;;;;5024621;27;20049;-69
2023/11/15 03:13:27;;;;;;;29.95;6.90;;;12.10;99.90;;;;;;5029148;27;20465;-69
2023/11/15 03:15:54;;;;;;;28.35;7.95;;;12.10;99.90;;;;;;5037040;27;20136;-69
2023/11/15 03:18:20;;;;;;;26.10;6.93;;;12.20;99.90;;;;;;5030533;27;20029;-69
2023/11/15 03:20:45;;;;;;;27.10;7.25;;;12.20;99.90;;;;;;5020141;27;20030;-70
2023/11/15 03:23:11;;;;;;;29.73;7.30;;;12.20;99.90;;;;;;5029859;27;20026;-68
2023/11/15 03:25:37;;;;;;;26.83;7.22;;;12.10;99.90;;;;;;5033278;27;20036;-69
2023/11/15 03:28:03;;;;;;;29.27;7.43;;;12.10;99.90;;;;;;5018188;27;20029;-69
2023/11/15 03:30:31;;;;;;;27.25;7.88;;;12.10;99.90;;;;;;5026549;27;20030;-69
2023/11/15 03:32:56;;;;;;;30.25;8.02;;;12.10;99.90;;;;;;5036404;27;20394;-71
2023/11/15 03:35:22;;;;;;;35.95;9.20;;;12.00;99.90;;;;;;5035008;27;20025;-70
2023/11/15 03:37:48;;;;;;;28.27;8.55;;;12.00;99.90;;;;;;5026472;27;20033;-69
2023/11/15 03:40:15;;;;;;;29.05;7.68;;;12.10;99.90;;;;;;5029062;27;20385;-69
2023/11/15 03:42:41;;;;;;;30.42;9.90;;;12.10;99.90;;;;;;5028748;27;20026;-69
2023/11/15 03:45:09;;;;;;;26.05;9.00;;;12.00;99.90;;;;;;5024793;27;20034;-68
2023/11/15 03:47:36;;;;;;;30.45;9.65;;;12.00;99.90;;;;;;5029410;27;20022;-69
2023/11/15 03:50:04;;;;;;;29.98;8.85;;;12.10;99.90;;;;;;5039290;27;20029;-70
2023/11/15 03:52:29;;;;;;;35.35;8.55;;;12.00;99.90;;;;;;5025877;27;20022;-69
2023/11/15 03:55:20;;;;;;;36.53;8.70;;;12.10;99.90;;;;;;5026429;27;20558;-69
2023/11/15 03:57:49;;;;;;;30.00;7.82;;;12.10;99.90;;;;;;5026380;27;20030;-71
2023/11/15 04:00:18;;;;;;;30.00;6.97;;;12.10;99.90;;;;;;5028353;27;20037;-70
2023/11/15 04:02:45;;;;;;;35.70;6.57;;;12.10;99.90;;;;;;5039207;27;20112;-69
2023/11/15 04:05:12;;;;;;;28.15;6.78;;;12.10;99.90;;;;;;5038118;27;20029;-69
2023/11/15 04:07:38;;;;;;;22.17;5.60;;;12.00;99.90;;;;;;5029175;27;20132;-69
2023/11/15 04:10:05;;;;;;;33.92;5.78;;;12.10;99.90;;;;;;5028487;27;20067;-74
2023/11/15 04:12:32;;;;;;;33.83;5.30;;;12.00;99.90;;;;;;5014585;28;20547;-70
2023/11/15 04:14:58;;;;;;;30.15;5.13;;;11.90;99.90;;;;;;5026942;27;20036;-70
2023/11/15 04:17:24;;;;;;;28.13;5.65;;;12.00;99.90;;;;;;5035761;27;20069;-70
2023/11/15 04:19:50;;;;;;;27.90;5.40;;;11.90;99.90;;;;;;5026661;27;20040;-69
2023/11/15 04:22:16;;;;;;;19.88;5.05;;;11.90;99.90;;;;;;5053587;27;20024;-69
2023/11/15 04:24:44;;;;;;;33.03;5.80;;;11.90;99.90;;;;;;5023310;27;20492;-78
2023/11/15 04:27:11;;;;;;;27.00;5.80;;;11.90;99.90;;;;;;5025305;27;20104;-71
2023/11/15 04:29:37;;;;;;;25.75;4.75;;;12.00;99.90;;;;;;5031103;27;20018;-69
2023/11/15 04:32:03;;;;;;;25.27;4.85;;;12.00;99.90;;;;;;5021981;28;20030;-72
2023/11/15 04:34:29;;;;;;;21.48;5.10;;;12.00;99.90;;;;;;5035168;27;20028;-70
2023/11/15 04:36:54;;;;;;;23.13;5.20;;;12.00;99.90;;;;;;5029359;27;20029;-70
2023/11/15 04:39:20;;;;;;;27.60;5.32;;;11.90;99.90;;;;;;5026958;28;20021;-70
2023/11/15 04:41:47;;;;;;;27.27;6.22;;;11.80;99.90;;;;;;5039073;27;20062;-70
2023/11/15 04:44:13;;;;;;;18.95;4.22;;;11.90;99.90;;;;;;5024690;28;20104;-69
2023/11/15 04:46:38;;;;;;;26.00;4.60;;;11.90;99.90;;;;;;5039303;27;20171;-69
2023/11/15 04:49:07;;;;;;;24.15;5.60;;;11.90;99.90;;;;;;5026167;28;20034;-69
2023/11/15 04:51:33;;;;;;;23.50;5.20;;;11.90;99.90;;;;;;5024772;27;20025;-70
2023/11/15 04:53:58;;;;;;;30.67;6.40;;;11.90;99.90;;;;;;5035432;27;20021;-70
2023/11/15 04:56:24;;;;;;;21.58;6.05;;;11.80;99.90;;;;;;5033050;28;20036;-69
2023/11/15 04:58:52;;;;;;;27.00;5.18;;;11.80;99.90;;;;;;5025382;27;20016;-70
2023/11/15 05:01:18;;;;;;;24.27;6.18;;;11.90;99.90;;;;;;5029036;27;20116;-70
2023/11/15 05:03:44;;;;;;;28.02;5.57;;;11.80;99.90;;;;;;5037119;28;20021;-69
2023/11/15 05:06:10;;;;;;;28.70;5.68;;;11.90;99.90;;;;;;5021957;28;20082;-70
2023/11/15 05:08:35;;;;;;;19.63;4.93;;;11.90;99.90;;;;;;5021702;28;20034;-69
2023/11/15 05:11:01;;;;;;;27.77;5.70;;;11.90;99.90;;;;;;5030508;28;20025;-70
2023/11/15 05:13:31;;;;;;;30.67;5.97;;;11.90;99.90;;;;;;5025248;28;20022;-73
2023/11/15 05:15:57;;;;;;;28.17;5.40;;;11.90;99.90;;;;;;5035470;28;20090;-70
2023/11/15 05:18:23;;;;;;;21.63;5.05;;;11.90;99.90;;;;;;5026530;28;20022;-70
2023/11/15 05:20:48;;;;;;;27.88;6.50;;;12.00;99.90;;;;;;5026037;28;20083;-70
2023/11/15 05:23:14;;;;;;;25.70;6.30;;;11.90;99.90;;;;;;5022878;28;20022;-69
2023/11/15 05:25:40;;;;;;;24.80;5.82;;;11.90;99.90;;;;;;5028684;28;20561;-71
2023/11/15 05:28:06;;;;;;;31.90;5.72;;;11.90;99.90;;;;;;5022758;28;20506;-69
2023/11/15 05:30:32;;;;;;;24.08;5.90;;;11.90;99.90;;;;;;5024139;28;20026;-78
2023/11/15 05:32:58;;;;;;;25.30;5.38;;;12.00;99.90;;;;;;5033287;28;20053;-69
2023/11/15 05:35:24;;;;;;;29.42;5.38;;;12.00;99.90;;;;;;5026884;28;20026;-72
2023/11/15 05:37:50;;;;;;;24.65;5.70;;;11.90;99.90;;;;;;5014358;28;20067;-70
2023/11/15 05:40:15;;;;;;;26.63;5.55;;;11.90;99.90;;;;;;5034295;28;20442;-69
2023/11/15 05:42:41;;;;;;;29.77;5.32;;;11.90;99.90;;;;;;5018049;28;20458;-69
2023/11/15 05:45:10;;;;;;;25.17;6.22;;;11.90;99.90;;;;;;5027575;28;20060;-69
2023/11/15 05:47:38;;;;;;;27.98;5.63;;;11.90;99.90;;;;;;5014190;28;20079;-69
2023/11/15 05:50:07;;;;;;;27.25;5.95;;;11.90;99.90;;;;;;5022648;28;20043;-69
2023/11/15 05:52:33;;;;;;;20.70;6.25;;;11.90;99.90;;;;;;5019899;28;20059;-70
2023/11/15 05:54:58;;;;;;;23.60;7.35;;;11.90;99.90;;;;;;5028644;28;20039;-68
2023/11/15 05:57:24;;;;;;;33.05;7.43;;;11.90;99.90;;;;;;5039028;28;20021;-69
2023/11/15 05:59:50;;;;;;;27.63;6.18;;;11.90;99.90;;;;;;5025159;28;20493;-69
2023/11/15 06:02:15;;;;;;;29.58;7.30;;;11.90;99.90;;;;;;5026812;27;20030;-70
2023/11/15 06:04:41;;;;;;;34.45;7.20;;;11.90;99.90;;;;;;5037666;27;20034;-69
2023/11/15 06:07:09;;;;;;;18.55;6.45;;;11.90;99.90;;;;;;5021518;28;20025;-70
2023/11/15 06:09:35;;;;;;;29.42;7.70;;;11.90;99.90;;;;;;5027290;27;20030;-68
2023/11/15 06:12:01;;;;;;;30.10;7.28;;;12.00;99.90;;;;;;5023824;27;20059;-69
2023/11/15 06:14:27;;;;;;;26.10;7.97;;;12.00;99.90;;;;;;5025336;27;20527;-70
2023/11/15 06:16:52;;;;;;;23.00;8.13;;;12.10;99.90;;;;;;5034749;27;20113;-70
2023/11/15 06:19:18;;;;;;;24.70;9.32;;;12.00;99.90;;;;;;5027653;27;20384;-70
2023/11/15 06:21:44;;;;;;;32.10;8.30;;;12.00;99.90;;;;;;5027620;27;20034;-75
2023/11/15 06:24:10;;;;;;;28.98;9.40;;;12.00;99.90;;;;;;5038234;27;20061;-70
2023/11/15 06:26:37;;;;;;;31.85;8.65;;;12.10;99.90;;;;;;5035811;27;20036;-70
2023/11/15 06:29:04;;;;;;;31.00;8.80;;;12.10;99.90;;;;;;5036255;27;20346;-69
2023/11/15 06:31:29;;;;;;;33.13;10.55;;;12.00;99.90;;;;;;5022081;27;20041;-70
2023/11/15 06:33:55;;;;;;;30.15;9.93;;;12.00;99.90;;;;;;5036375;27;20025;-69
2023/11/15 06:36:21;;;;;;;29.17;10.43;;;12.00;99.90;;;;;;5036882;27;20022;-69
2023/11/15 06:38:47;;;;;;;27.65;10.05;;;11.90;99.90;;;;;;5037664;27;20048;-69
2023/11/15 06:41:15;;;;;;;30.75;11.23;;;12.00;99.90;;;;;;5023065;27;20033;-69
2023/11/15 06:43:41;;;;;;;34.35;10.90;;;12.10;99.90;;;;;;5030871;27;20017;-69
2023/11/15 06:46:07;;;;;;;29.15;10.52;;;12.00;99.90;;;;;;5017574;27;20077;-70
2023/11/15 06:48:33;;;;;;;27.95;10.73;;;12.00;99.90;;;;;;5023694;27;20034;-69
2023/11/15 06:50:59;;;;;;;44.55;10.90;;;11.90;99.90;;;;;;5024639;27;20029;-73
2023/11/15 06:53:25;;;;;;;37.50;10.57;;;11.90;99.90;;;;;;5030982;27;20033;-72
2023/11/15 06:55:54;;;;;;;26.40;10.85;;;12.00;99.90;;;;;;5036452;27;20028;-76
2023/11/15 06:58:21;;;;;;;31.20;10.85;;;12.00;99.90;;;;;;5038498;27;20057;-72
2023/11/15 07:00:47;;;;;;;39.03;10.45;;;11.90;99.90;;;;;;5019589;27;20504;-69
2023/11/15 07:03:13;;;;;;;28.92;11.55;;;12.00;99.90;;;;;;5033277;27;20517;-77
2023/11/15 07:05:42;;;;;;;27.38;10.07;;;12.00;99.90;;;;;;5028051;27;20053;-79
2023/11/15 07:08:09;;;;;;;29.77;9.95;;;11.90;99.90;;;;;;5025413;27;20044;-73
2023/11/15 07:10:35;;;;;;;34.10;10.68;;;11.90;99.90;;;;;;5025446;27;20037;-73
2023/11/15 07:13:02;;;;;;;30.15;10.88;;;11.90;99.90;;;;;;5030058;27;20100;-72
2023/11/15 07:15:28;;;;;;;32.50;11.23;;;11.90;99.90;;;;;;5024243;27;20029;-76
2023/11/15 07:17:54;;;;;;;25.15;9.70;;;11.90;99.90;;;;;;5029518;27;20081;-73
2023/11/15 07:20:21;;;;;;;28.83;10.02;;;12.00;99.90;;;;;;5036955;27;20489;-71
2023/11/15 07:22:47;;;;;;;28.83;10.05;;;12.00;99.90;;;;;;5019056;28;20466;-72
2023/11/15 07:25:18;;;;;;;29.13;9.13;;;11.90;99.90;;;;;;5033573;27;20074;-76
2023/11/15 07:27:44;;;;;;;29.85;9.07;;;11.80;99.90;;;;;;5019118;27;20104;-73
2023/11/15 07:30:11;;;;;;;26.42;10.07;;;11.80;99.90;;;;;;5037653;27;20054;-80
2023/11/15 07:32:38;;;;;;;31.30;9.55;;;11.90;99.90;;;;;;5033667;27;20529;-74
2023/11/15 07:35:05;;;;;;;26.88;9.48;;;11.90;99.90;;;;;;5036011;27;20021;-79
2023/11/15 07:37:31;;;;;;;24.73;9.23;;;11.90;99.90;;;;;;5035093;27;20029;-73
2023/11/15 07:39:57;;;;;;;32.80;9.73;;;12.00;99.90;;;;;;5019728;28;20034;-80
2023/11/15 07:42:24;;;;;;;27.45;9.32;;;12.00;99.90;;;;;;5023958;28;20090;-76
2023/11/15 07:44:51;;;;;;;29.00;9.55;;;12.00;99.90;;;;;;5034208;27;20474;-81
2023/11/15 07:47:17;;;;;;;20.15;7.78;;;12.10;99.90;;;;;;5022092;27;20067;-76
2023/11/15 07:49:44;;;;;;;29.67;9.18;;;12.00;99.90;;;;;;5029356;27;20026;-75
2023/11/15 07:52:13;;;;;;;30.42;8.65;;;12.10;99.90;;;;;;5025323;27;20052;-78
2023/11/15 07:54:39;;;;;;;32.78;8.27;;;12.10;99.90;;;;;;5040273;27;20021;-80
2023/11/15 07:57:07;;;;;;;28.55;8.73;;;12.10;99.90;;;;;;5032518;27;20029;-80
2023/11/15 07:59:34;;;;;;;17.60;8.15;;;12.10;99.90;;;;;;5031072;27;20029;-76
2023/11/15 08:02:00;;;;;;;33.00;8.77;;;12.10;99.90;;;;;;5031457;27;20102;-81
2023/11/15 08:04:26;;;;;;;30.52;8.55;;;12.10;99.90;;;;;;5030903;27;20014;-80
2023/11/15 08:06:52;;;;;;;29.35;8.93;;;12.20;99.90;;;;;;5032594;27;20033;-82
2023/11/15 08:09:24;;;;;;;20.55;6.47;;;12.20;99.90;;;;;;5021749;27;20037;-78
2023/11/15 08:11:59;;;;;;;31.70;8.82;;;12.20;99.90;;;;;;5014012;28;20026;-77
2023/11/15 08:14:25;;;;;;;23.85;7.15;;;12.10;99.90;;;;;;5017397;27;20041;-73
2023/11/15 08:16:51;;;;;;;27.17;7.57;;;12.20;99.90;;;;;;5016964;27;20048;-75
2023/11/15 08:19:18;;;;;;;26.67;8.45;;;12.20;99.90;;;;;;5005185;27;20034;-74
2023/11/15 08:21:44;;;;;;;23.45;7.68;;;12.30;99.90;;;;;;5020476;27;20045;-79
2023/11/15 08:24:13;;;;;;;25.27;7.57;;;12.30;99.90;;;;;;5026639;28;20085;-76
2023/11/15 08:26:39;;;;;;;24.55;7.30;;;12.30;99.90;;;;;;5005459;28;20048;-74
2023/11/15 08:29:05;;;;;;;34.47;7.47;;;12.20;99.90;;;;;;5026322;28;20558;-73
2023/11/15 08:31:33;;;;;;;21.92;6.43;;;12.20;99.90;;;;;;5015245;27;20935;-75
2023/11/15 08:33:58;;;;;;;20.55;6.40;;;12.20;99.90;;;;;;5015699;28;20410;-77
2023/11/15 08:36:24;;;;;;;23.80;7.05;;;12.10;99.90;;;;;;5019025;28;20068;-75
2023/11/15 08:38:50;;;;;;;27.48;6.80;;;12.20;99.90;;;;;;5029917;27;20172;-74
2023/11/15 08:41:16;;;;;;;24.55;6.97;;;12.30;99.90;;;;;;5015960;28;20041;-74
2023/11/15 08:43:42;;;;;;;21.70;7.32;;;12.40;99.90;;;;;;5030304;27;20423;-74
2023/11/15 08:46:08;;;;;;;22.42;7.95;;;12.30;99.90;;;;;;5022262;27;20061;-76
2023/11/15 08:48:34;;;;;;;28.38;7.32;;;12.40;99.90;;;;;;5018373;28;20501;-74
2023/11/15 08:51:02;;;;;;;25.05;7.45;;;12.40;99.90;;;;;;5030716;28;20099;-76
2023/11/15 08:53:29;;;;;;;24.80;6.93;;;12.40;99.90;;;;;;5027859;28;20043;-75
2023/11/15 08:55:55;;;;;;;28.75;7.75;;;12.30;99.90;;;;;;5021419;28;20030;-75
2023/11/15 08:58:27;;;;;;;20.23;7.60;;;12.30;99.90;;;;;;5020829;28;20036;-75
2023/11/15 09:00:57;;;;;;;24.00;7.13;;;12.40;99.90;;;;;;5018249;27;20033;-77
2023/11/15 09:03:23;;;;;;;23.73;7.07;;;12.40;99.90;;;;;;5029250;28;20295;-74
2023/11/15 09:05:49;;;;;;;26.45;7.03;;;12.50;99.90;;;;;;5027831;28;20509;-73
2023/11/15 09:08:16;;;;;;;25.08;7.32;;;12.50;99.90;;;;;;5027792;27;20090;-74
2023/11/15 09:10:42;;;;;;;28.02;7.38;;;12.40;99.90;;;;;;5028351;28;20038;-75
2023/11/15 09:13:12;;;;;;;26.70;7.53;;;12.40;99.90;;;;;;5029741;28;20050;-74
2023/11/15 09:15:41;;;;;;;26.05;7.03;;;12.50;99.90;;;;;;5018247;28;20121;-74
2023/11/15 09:18:10;;;;;;;23.75;8.25;;;12.50;99.90;;;;;;5030743;28;20485;-73
2023/11/15 09:20:37;;;;;;;26.33;7.03;;;12.50;99.90;;;;;;5020148;28;20502;-73
2023/11/15 09:23:06;;;;;;;31.77;7.55;;;12.60;99.90;;;;;;5021442;28;20013;-73
2023/11/15 09:25:35;;;;;;;25.00;7.65;;;12.60;99.90;;;;;;5027904;28;20024;-73
2023/11/15 09:28:04;;;;;;;28.83;7.70;;;12.70;99.90;;;;;;5021112;28;20017;-74
2023/11/15 09:30:33;;;;;;;26.83;7.93;;;12.70;99.90;;;;;;5027568;28;20032;-71
2023/11/15 09:32:59;;;;;;;24.42;7.55;;;12.70;99.90;;;;;;5020185;28;20389;-72
2023/11/15 09:35:29;;;;;;;18.75;7.15;;;12.80;99.90;;;;;;5033077;27;20041;-74
2023/11/15 09:37:57;;;;;;;21.88;8.65;;;12.80;99.90;;;;;;5038887;27;20407;-73
2023/11/15 09:40:24;;;;;;;23.30;8.02;;;12.80;99.90;;;;;;5023983;27;20041;-73
2023/11/15 09:42:54;;;;;;;24.52;7.85;;;12.80;99.90;;;;;;5029433;27;20040;-74
2023/11/15 09:45:23;;;;;;;26.17;8.52;;;12.70;99.90;;;;;;5038983;27;20377;-75
2023/11/15 09:47:53;;;;;;;23.15;7.60;;;12.80;99.90;;;;;;5024802;27;20034;-74
2023/11/15 09:50:26;;;;;;;16.33;7.00;;;12.80;99.90;;;;;;5028232;27;20023;-74
2023/11/15 09:52:58;;;;;;;21.00;8.27;;;12.70;99.90;;;;;;5032928;27;20025;-73
2023/11/15 09:55:26;;;;;;;23.58;8.27;;;12.80;99.90;;;;;;5028442;27;20029;-85
2023/11/15 09:57:53;;;;;;;24.42;7.63;;;12.80;99.90;;;;;;5024982;28;20036;-72
2023/11/15 10:00:20;;;;;;;25.75;7.05;;;12.90;99.90;;;;;;5027083;27;20045;-77
2023/11/15 10:02:48;;;;;;;29.67;7.82;;;12.90;99.90;;;;;;5027319;27;20029;-79
2023/11/15 10:05:23;;;;;;;22.23;7.10;;;12.90;99.90;;;;;;5035152;27;20040;-79
2023/11/15 10:07:52;;;;;;;22.75;7.05;;;13.10;99.90;;;;;;5025577;28;20070;-73
2023/11/15 10:10:20;;;;;;;24.42;7.28;;;13.10;99.90;;;;;;5034311;27;20023;-73
2023/11/15 10:12:50;;;;;;;17.38;6.65;;;13.10;99.90;;;;;;5030100;27;20135;-75
2023/11/15 10:15:39;;;;;;;22.65;6.47;;;13.10;99.90;;;;;;5027724;27;20130;-73
2023/11/15 10:18:11;;;;;;;23.15;7.50;;;13.20;99.90;;;;;;5032597;27;20022;-74
2023/11/15 10:20:38;;;;;;;17.33;5.32;;;13.10;99.90;;;;;;5031376;27;20037;-80
2023/11/15 10:23:04;;;;;;;23.67;7.47;;;13.20;99.90;;;;;;5031883;27;20013;-80
2023/11/15 10:25:31;;;;;;;25.92;7.28;;;13.20;99.90;;;;;;5026845;27;20041;-73
2023/11/15 10:28:08;;;;;;;20.13;7.57;;;13.30;99.90;;;;;;5029445;27;20022;-80
2023/11/15 10:30:33;;;;;;;21.42;6.32;;;13.20;99.90;;;;;;5027510;27;20029;-76
2023/11/15 10:33:16;;;;;;;24.48;6.20;;;13.20;99.90;;;;;;5028956;27;20126;-83
2023/11/15 10:35:43;;;;;;;19.95;6.68;;;13.20;99.90;;;;;;5030593;27;20108;-75
2023/11/15 10:38:19;;;;;;;28.58;6.63;;;13.30;99.90;;;;;;5029236;27;20021;-76
2023/11/15 10:40:52;;;;;;;19.35;7.05;;;13.30;99.90;;;;;;5033523;27;20031;-77
2023/11/15 10:43:19;;;;;;;21.65;6.65;;;13.20;99.90;;;;;;5034105;27;20041;-79
2023/11/15 10:45:46;;;;;;;20.88;7.18;;;13.20;99.90;;;;;;5026885;27;20922;-72
2023/11/15 10:48:18;;;;;;;17.27;6.20;;;13.10;99.90;;;;;;5030233;27;20033;-72
2023/11/15 10:50:45;;;;;;;18.73;6.22;;;13.10;99.90;;;;;;5033136;27;20485;-73
2023/11/15 10:53:12;;;;;;;16.95;6.22;;;13.10;99.90;;;;;;5026303;27;20146;-72
2023/11/15 10:55:39;;;;;;;23.15;6.35;;;13.00;99.90;;;;;;5026216;27;20073;-74
2023/11/15 10:58:08;;;;;;;17.33;6.60;;;13.00;99.90;;;;;;5024270;27;20031;-76
2023/11/15 11:00:40;;;;;;;20.58;6.82;;;12.90;99.90;;;;;;5036899;27;20021;-78
2023/11/15 11:03:07;;;;;;;17.67;6.72;;;13.00;99.90;;;;;;5044111;27;20065;-75
2023/11/15 11:06:08;;;;;;;15.30;6.82;;;13.00;99.90;;;;;;5033591;27;20568;-73
2023/11/15 11:08:45;;;;;;;24.63;6.78;;;13.10;99.90;;;;;;4993765;28;20086;-73
2023/11/15 11:11:14;;;;;;;23.38;7.43;;;13.10;99.90;;;;;;5031915;27;20075;-82
2023/11/15 11:13:40;;;;;;;24.45;8.25;;;13.30;99.90;;;;;;5019440;28;20075;-78
2023/11/15 11:16:28;;;;;;;20.85;7.60;;;13.30;99.90;;;;;;5039975;27;20068;-77
2023/11/15 11:19:21;;;;;;;20.60;7.68;;;13.30;99.90;;;;;;5024338;27;20033;-73
2023/11/15 11:24:31;;;;;;;21.20;8.50;;;13.30;99.90;;;;;;5036554;27;20245;-74
2023/11/15 11:27:14;;;;;;;21.65;8.98;;;13.30;99.90;;;;;;5029982;27;20521;-78
2023/11/15 11:29:49;;;;;;;25.33;8.45;;;13.30;99.90;;;;;;5025269;27;20036;-74
2023/11/15 11:32:32;;;;;;;28.08;7.93;;;13.30;99.90;;;;;;5039862;27;20045;-79
2023/11/15 11:35:01;;;;;;;22.10;7.88;;;13.40;99.90;;;;;;5032796;27;20029;-72
2023/11/15 11:37:53;;;;;;;21.95;7.68;;;13.40;99.90;;;;;;5024493;27;20469;-78
2023/11/15 11:40:35;;;;;;;22.55;7.32;;;13.50;99.90;;;;;;5034111;27;20495;-78
2023/11/15 11:43:21;;;;;;;20.10;6.95;;;13.60;99.90;;;;;;5024605;27;20032;-72
2023/11/15 11:45:54;;;;;;;26.20;7.55;;;13.60;99.90;;;;;;5018337;28;20022;-77
2023/11/15 11:48:22;;;;;;;21.42;7.32;;;13.70;99.90;;;;;;5018784;27;20030;-73
2023/11/15 11:50:58;;;;;;;20.52;6.53;;;13.80;99.90;;;;;;5019401;27;20517;-80
2023/11/15 11:53:24;;;;;;;23.27;6.38;;;13.90;99.90;;;;;;5021235;27;20049;-76
2023/11/15 11:55:55;;;;;;;18.45;6.60;;;13.90;99.90;;;;;;5034396;27;20056;-73
2023/11/15 11:58:22;;;;;;;20.77;7.45;;;13.80;99.90;;;;;;5026784;28;20037;-74
2023/11/15 12:00:49;;;;;;;28.83;7.47;;;13.80;99.90;;;;;;5032744;27;20055;-72
2023/11/15 12:03:15;;;;;;;20.17;6.82;;;13.80;99.90;;;;;;5014291;28;20508;-72
2023/11/15 12:05:41;;;;;;;16.05;5.93;;;13.80;99.90;;;;;;5032425;27;20129;-77
2023/11/15 12:08:07;;;;;;;21.00;5.88;;;13.80;99.90;;;;;;5026702;27;20033;-78
2023/11/15 12:10:34;;;;;;;18.73;5.82;;;13.80;99.90;;;;;;5030024;27;20098;-75
2023/11/15 12:13:05;;;;;;;15.52;6.30;;;13.80;99.90;;;;;;5029028;27;20009;-75
2023/11/15 12:15:35;;;;;;;17.97;5.07;;;13.90;99.90;;;;;;5020007;27;20029;-74
2023/11/15 12:18:02;;;;;;;16.27;4.63;;;14.00;99.90;;;;;;5033359;27;20021;-75
2023/11/15 12:20:41;;;;;;;15.82;5.82;;;14.10;99.90;;;;;;5025705;27;20062;-75
2023/11/15 12:23:08;;;;;;;16.45;4.97;;;14.10;99.90;;;;;;5031465;27;20043;-74
2023/11/15 12:25:54;;;;;;;14.32;5.40;;;14.10;99.90;;;;;;5033834;27;20029;-75
2023/11/15 12:28:25;;;;;;;17.80;4.68;;;14.20;99.90;;;;;;5027156;27;20104;-75
2023/11/15 12:30:53;;;;;;;13.32;5.15;;;14.20;99.90;;;;;;5030097;27;20030;-74
2023/11/15 12:33:20;;;;;;;19.38;6.05;;;14.10;99.90;;;;;;5025118;27;20549;-73
2023/11/15 12:35:47;;;;;;;12.32;5.20;;;14.10;99.90;;;;;;5031726;27;20037;-74
2023/11/15 12:38:14;;;;;;;12.73;5.50;;;14.10;99.90;;;;;;5025214;27;20540;-77
2023/11/15 12:40:40;;;;;;;13.50;5.47;;;14.10;99.90;;;;;;5025646;28;20072;-76